sensor_id;sensor_type;location;lat;lon;timestamp;pressure;altitude;pressure_sealevel;temperature;humidity
20003;BME280;10162;41.600;23.806;2023-02-19T00:18:37;95628.50;;;2.16;92.86
20003;BME280;10162;41.600;23.806;2023-02-19T00:22:02;95630.91;;;1.98;94.24
20003;BME280;10162;41.600;23.806;2023-02-19T00:24:39;95616.38;;;2.06;92.66
20003;BME280;10162;41.600;23.806;2023-02-19T00:39:55;95618.41;;;2.03;95.15
20003;BME280;10162;41.600;23.806;2023-02-19T01:25:26;95525.75;;;1.31;96.73
20003;BME280;10162;41.600;23.806;2023-02-19T03:11:57;95551.97;;;0.95;100.00
20003;BME280;10162;41.600;23.806;2023-02-19T03:35:09;95555.38;;;0.95;100.00
20003;BME280;10162;41.600;23.806;2023-02-19T04:22:00;95548.88;;;-0.38;100.00
20003;BME280;10162;41.600;23.806;2023-02-19T04:24:32;95539.41;;;-0.26;100.00
20003;BME280;10162;41.600;23.806;2023-02-19T05:12:59;95574.81;;;-0.41;100.00
20003;BME280;10162;41.600;23.806;2023-02-19T05:28:37;95627.47;;;-0.24;100.00
20003;BME280;10162;41.600;23.806;2023-02-19T05:55:29;95611.56;;;0.58;100.00
20003;BME280;10162;41.600;23.806;2023-02-19T05:57:58;95602.16;;;1.00;100.00
20003;BME280;10162;41.600;23.806;2023-02-19T06:00:23;95621.34;;;1.38;100.00
20003;BME280;10162;41.600;23.806;2023-02-19T06:04:00;95641.00;;;2.11;100.00
20003;BME280;10162;41.600;23.806;2023-02-19T06:06:34;95633.78;;;2.04;100.00
20003;BME280;10162;41.600;23.806;2023-02-19T06:13:41;95648.97;;;2.57;100.00
20003;BME280;10162;41.600;23.806;2023-02-19T06:20:23;95664.09;;;2.90;99.52
20003;BME280;10162;41.600;23.806;2023-02-19T06:23:00;95649.13;;;2.75;97.59
20003;BME280;10162;41.600;23.806;2023-02-19T06:25:27;95652.94;;;2.80;97.44
20003;BME280;10162;41.600;23.806;2023-02-19T06:28:32;95670.09;;;3.01;98.11
20003;BME280;10162;41.600;23.806;2023-02-19T06:31:40;95641.09;;;2.59;98.26
20003;BME280;10162;41.600;23.806;2023-02-19T07:08:45;95648.50;;;3.87;90.75
20003;BME280;10162;41.600;23.806;2023-02-19T07:12:12;95658.34;;;4.20;88.96
20003;BME280;10162;41.600;23.806;2023-02-19T07:14:39;95646.84;;;4.23;88.08
20003;BME280;10162;41.600;23.806;2023-02-19T07:17:05;95637.69;;;4.38;87.36
20003;BME280;10162;41.600;23.806;2023-02-19T07:19:30;95639.88;;;4.60;85.08
20003;BME280;10162;41.600;23.806;2023-02-19T07:21:56;95660.78;;;4.94;84.20
20003;BME280;10162;41.600;23.806;2023-02-19T07:24:23;95646.44;;;5.17;83.04
20003;BME280;10162;41.600;23.806;2023-02-19T07:26:48;95655.38;;;5.23;83.79
20003;BME280;10162;41.600;23.806;2023-02-19T07:29:16;95641.09;;;5.01;84.25
20003;BME280;10162;41.600;23.806;2023-02-19T07:31:42;95660.84;;;5.37;83.99
20003;BME280;10162;41.600;23.806;2023-02-19T07:34:10;95648.09;;;5.26;84.06
20003;BME280;10162;41.600;23.806;2023-02-19T07:36:36;95654.84;;;5.37;83.93
20003;BME280;10162;41.600;23.806;2023-02-19T07:39:02;95627.13;;;5.37;82.24
20003;BME280;10162;41.600;23.806;2023-02-19T07:41:28;95651.03;;;5.67;81.57
20003;BME280;10162;41.600;23.806;2023-02-19T07:44:02;95653.22;;;6.05;79.65
20003;BME280;10162;41.600;23.806;2023-02-19T07:46:29;95649.19;;;6.11;79.32
20003;BME280;10162;41.600;23.806;2023-02-19T07:48:55;95626.72;;;6.28;77.46
20003;BME280;10162;41.600;23.806;2023-02-19T07:51:22;95651.25;;;6.75;75.59
20003;BME280;10162;41.600;23.806;2023-02-19T07:53:59;95639.59;;;6.87;74.64
20003;BME280;10162;41.600;23.806;2023-02-19T07:56:27;95646.78;;;7.18;73.06
20003;BME280;10162;41.600;23.806;2023-02-19T07:58:53;95631.53;;;7.23;72.34
20003;BME280;10162;41.600;23.806;2023-02-19T08:01:22;95646.31;;;7.30;71.93
20003;BME280;10162;41.600;23.806;2023-02-19T08:04:11;95629.41;;;7.51;71.19
20003;BME280;10162;41.600;23.806;2023-02-19T08:06:37;95638.63;;;8.02;70.21
20003;BME280;10162;41.600;23.806;2023-02-19T08:09:04;95613.50;;;8.25;68.78
20003;BME280;10162;41.600;23.806;2023-02-19T08:11:30;95610.88;;;8.33;68.42
20003;BME280;10162;41.600;23.806;2023-02-19T08:14:31;95611.06;;;8.23;68.77
20003;BME280;10162;41.600;23.806;2023-02-19T08:16:56;95617.25;;;8.31;67.31
20003;BME280;10162;41.600;23.806;2023-02-19T08:19:22;95606.78;;;8.39;65.94
20003;BME280;10162;41.600;23.806;2023-02-19T08:21:49;95618.31;;;8.44;66.57
20003;BME280;10162;41.600;23.806;2023-02-19T08:24:15;95586.88;;;8.46;67.76
20003;BME280;10162;41.600;23.806;2023-02-19T08:26:42;95602.59;;;8.60;66.67
20003;BME280;10162;41.600;23.806;2023-02-19T08:29:08;95619.53;;;8.95;65.97
20003;BME280;10162;41.600;23.806;2023-02-19T08:31:35;95613.69;;;8.62;67.67
20003;BME280;10162;41.600;23.806;2023-02-19T08:34:05;95611.84;;;8.71;66.48
20003;BME280;10162;41.600;23.806;2023-02-19T08:36:32;95584.94;;;8.48;66.43
20003;BME280;10162;41.600;23.806;2023-02-19T08:38:58;95586.03;;;8.53;66.79
20003;BME280;10162;41.600;23.806;2023-02-19T08:41:24;95625.13;;;8.84;66.37
20003;BME280;10162;41.600;23.806;2023-02-19T08:47:44;95591.91;;;8.78;65.80
20003;BME280;10162;41.600;23.806;2023-02-19T08:50:11;95593.56;;;9.02;65.01
20003;BME280;10162;41.600;23.806;2023-02-19T08:52:54;95583.41;;;9.30;65.53
20003;BME280;10162;41.600;23.806;2023-02-19T08:55:20;95561.03;;;9.12;64.85
20003;BME280;10162;41.600;23.806;2023-02-19T08:57:45;95586.22;;;9.28;63.85
20003;BME280;10162;41.600;23.806;2023-02-19T09:00:12;95575.66;;;9.22;64.56
20003;BME280;10162;41.600;23.806;2023-02-19T09:06:32;95579.34;;;9.65;64.40
20003;BME280;10162;41.600;23.806;2023-02-19T09:08:59;95574.72;;;10.04;62.79
20003;BME280;10162;41.600;23.806;2023-02-19T09:11:25;95525.72;;;10.06;60.02
20003;BME280;10162;41.600;23.806;2023-02-19T09:13:55;95547.53;;;10.28;60.12
20003;BME280;10162;41.600;23.806;2023-02-19T09:16:22;95564.19;;;10.42;60.20
20003;BME280;10162;41.600;23.806;2023-02-19T09:18:49;95533.91;;;10.68;58.57
20003;BME280;10162;41.600;23.806;2023-02-19T09:21:14;95542.56;;;10.69;59.71
20003;BME280;10162;41.600;23.806;2023-02-19T09:23:41;95553.09;;;10.75;59.54
20003;BME280;10162;41.600;23.806;2023-02-19T09:26:07;95531.19;;;10.98;57.80
20003;BME280;10162;41.600;23.806;2023-02-19T09:28:34;95522.59;;;11.04;57.50
20003;BME280;10162;41.600;23.806;2023-02-19T09:31:04;95515.41;;;11.12;57.14
20003;BME280;10162;41.600;23.806;2023-02-19T09:33:49;95518.28;;;11.39;56.00
20003;BME280;10162;41.600;23.806;2023-02-19T09:36:16;95553.34;;;11.44;55.92
20003;BME280;10162;41.600;23.806;2023-02-19T09:38:43;95515.69;;;11.45;54.73
20003;BME280;10162;41.600;23.806;2023-02-19T09:41:28;95516.41;;;11.88;54.27
20003;BME280;10162;41.600;23.806;2023-02-19T09:43:59;95503.97;;;12.04;53.49
20003;BME280;10162;41.600;23.806;2023-02-19T09:46:51;95514.09;;;12.13;53.64
20003;BME280;10162;41.600;23.806;2023-02-19T09:49:39;95516.41;;;11.88;54.45
20003;BME280;10162;41.600;23.806;2023-02-19T09:55:40;95509.59;;;11.94;55.04
20003;BME280;10162;41.600;23.806;2023-02-19T09:58:21;95492.31;;;12.06;54.99
20003;BME280;10162;41.600;23.806;2023-02-19T10:00:56;95499.75;;;12.50;53.54
20003;BME280;10162;41.600;23.806;2023-02-19T10:05:51;95481.44;;;12.83;51.42
20003;BME280;10162;41.600;23.806;2023-02-19T10:08:19;95474.00;;;13.00;51.37
20003;BME280;10162;41.600;23.806;2023-02-19T10:10:46;95492.22;;;13.21;50.38
20003;BME280;10162;41.600;23.806;2023-02-19T10:13:33;95484.66;;;13.90;48.79
20003;BME280;10162;41.600;23.806;2023-02-19T10:16:04;95465.03;;;13.93;48.09
20003;BME280;10162;41.600;23.806;2023-02-19T10:18:41;95477.53;;;14.11;47.39
20003;BME280;10162;41.600;23.806;2023-02-19T10:21:17;95458.31;;;14.10;46.65
20003;BME280;10162;41.600;23.806;2023-02-19T10:23:46;95449.09;;;14.45;45.79
20003;BME280;10162;41.600;23.806;2023-02-19T10:26:13;95457.06;;;14.64;45.01
20003;BME280;10162;41.600;23.806;2023-02-19T10:28:40;95432.00;;;14.61;44.46
20003;BME280;10162;41.600;23.806;2023-02-19T10:31:32;95444.38;;;14.54;43.58
20003;BME280;10162;41.600;23.806;2023-02-19T10:33:59;95435.16;;;14.70;42.78
20003;BME280;10162;41.600;23.806;2023-02-19T10:36:36;95430.25;;;14.80;42.44
20003;BME280;10162;41.600;23.806;2023-02-19T10:41:49;95421.78;;;15.52;41.70
20003;BME280;10162;41.600;23.806;2023-02-19T10:44:27;95409.78;;;15.50;41.44
20003;BME280;10162;41.600;23.806;2023-02-19T10:46:56;95408.38;;;15.54;42.11
20003;BME280;10162;41.600;23.806;2023-02-19T10:49:35;95403.50;;;15.51;42.35
20003;BME280;10162;41.600;23.806;2023-02-19T10:52:13;95403.63;;;15.81;42.03
20003;BME280;10162;41.600;23.806;2023-02-19T10:54:45;95379.22;;;15.67;41.90
20003;BME280;10162;41.600;23.806;2023-02-19T10:59:54;95390.16;;;15.70;42.21
20003;BME280;10162;41.600;23.806;2023-02-19T11:02:31;95384.84;;;16.07;40.84
20003;BME280;10162;41.600;23.806;2023-02-19T11:07:38;95362.78;;;15.53;42.74
20003;BME280;10162;41.600;23.806;2023-02-19T11:13:06;95339.09;;;15.47;42.73
20003;BME280;10162;41.600;23.806;2023-02-19T11:15:39;95344.28;;;15.90;42.13
20003;BME280;10162;41.600;23.806;2023-02-19T11:20:55;95352.72;;;15.80;41.59
20003;BME280;10162;41.600;23.806;2023-02-19T11:23:29;95350.69;;;15.82;42.06
20003;BME280;10162;41.600;23.806;2023-02-19T11:25:58;95338.47;;;15.69;42.04
20003;BME280;10162;41.600;23.806;2023-02-19T11:28:36;95345.94;;;16.21;39.96
20003;BME280;10162;41.600;23.806;2023-02-19T11:31:25;95334.88;;;16.53;40.75
20003;BME280;10162;41.600;23.806;2023-02-19T11:36:46;95326.88;;;15.89;39.89
20003;BME280;10162;41.600;23.806;2023-02-19T11:49:53;95300.78;;;16.40;38.25
20003;BME280;10162;41.600;23.806;2023-02-19T12:41:47;95212.50;;;17.98;35.98
20003;BME280;10162;41.600;23.806;2023-02-19T12:47:22;95198.16;;;18.10;34.60
20003;BME280;10162;41.600;23.806;2023-02-19T12:52:42;95194.81;;;18.15;34.01
20003;BME280;10162;41.600;23.806;2023-02-19T12:55:33;95207.97;;;18.60;32.94
20003;BME280;10162;41.600;23.806;2023-02-19T12:58:03;95183.19;;;18.33;33.44
20003;BME280;10162;41.600;23.806;2023-02-19T13:00:52;95187.50;;;18.39;33.80
20003;BME280;10162;41.600;23.806;2023-02-19T13:03:34;95186.38;;;18.35;33.98
20003;BME280;10162;41.600;23.806;2023-02-19T13:06:21;95183.25;;;18.71;32.39
20003;BME280;10162;41.600;23.806;2023-02-19T13:11:52;95185.97;;;18.98;32.07
20003;BME280;10162;41.600;23.806;2023-02-19T13:18:18;95153.25;;;19.31;30.94
20003;BME280;10162;41.600;23.806;2023-02-19T13:20:46;95152.97;;;19.06;31.00
20003;BME280;10162;41.600;23.806;2023-02-19T13:23:23;95153.16;;;19.21;31.15
20003;BME280;10162;41.600;23.806;2023-02-19T13:37:24;95124.25;;;20.00;30.69
20003;BME280;10162;41.600;23.806;2023-02-19T13:39:52;95120.03;;;19.99;30.62
20003;BME280;10162;41.600;23.806;2023-02-19T13:42:37;95126.66;;;20.01;31.08
20003;BME280;10162;41.600;23.806;2023-02-19T13:45:04;95109.84;;;19.37;31.02
20003;BME280;10162;41.600;23.806;2023-02-19T13:50:33;95109.34;;;19.94;30.52
20003;BME280;10162;41.600;23.806;2023-02-19T13:53:00;95126.09;;;19.99;30.45
20003;BME280;10162;41.600;23.806;2023-02-19T14:05:59;95106.13;;;20.23;29.26
20003;BME280;10162;41.600;23.806;2023-02-19T14:08:47;95107.16;;;20.22;28.39
20003;BME280;10162;41.600;23.806;2023-02-19T14:11:14;95079.28;;;20.20;29.39
20003;BME280;10162;41.600;23.806;2023-02-19T14:19:11;95089.22;;;19.98;29.56
20003;BME280;10162;41.600;23.806;2023-02-19T14:21:39;95094.03;;;20.06;29.62
20003;BME280;10162;41.600;23.806;2023-02-19T14:24:11;95071.25;;;20.47;29.43
20003;BME280;10162;41.600;23.806;2023-02-19T14:26:39;95076.00;;;20.40;29.04
20003;BME280;10162;41.600;23.806;2023-02-19T14:29:07;95073.72;;;20.63;27.35
20003;BME280;10162;41.600;23.806;2023-02-19T14:31:36;95081.28;;;20.40;29.10
20003;BME280;10162;41.600;23.806;2023-02-19T14:34:22;95082.44;;;20.17;29.43
20003;BME280;10162;41.600;23.806;2023-02-19T14:36:55;95070.19;;;20.43;29.28
20003;BME280;10162;41.600;23.806;2023-02-19T14:39:28;95080.41;;;19.60;30.06
20003;BME280;10162;41.600;23.806;2023-02-19T14:41:59;95072.25;;;18.70;30.18
20003;BME280;10162;41.600;23.806;2023-02-19T14:44:29;95072.56;;;18.35;30.72
20003;BME280;10162;41.600;23.806;2023-02-19T14:47:07;95059.91;;;17.65;31.67
20003;BME280;10162;41.600;23.806;2023-02-19T14:49:48;95082.75;;;17.43;32.31
20003;BME280;10162;41.600;23.806;2023-02-19T14:52:23;95065.22;;;17.08;33.16
20003;BME280;10162;41.600;23.806;2023-02-19T14:54:59;95063.41;;;17.87;31.90
20003;BME280;10162;41.600;23.806;2023-02-19T14:57:37;95051.38;;;18.35;30.77
20003;BME280;10162;41.600;23.806;2023-02-19T15:02:51;95049.72;;;18.67;30.38
20003;BME280;10162;41.600;23.806;2023-02-19T15:05:23;95066.47;;;18.73;30.84
20003;BME280;10162;41.600;23.806;2023-02-19T15:07:51;95069.31;;;18.28;31.18
20003;BME280;10162;41.600;23.806;2023-02-19T15:10:17;95081.34;;;18.57;31.58
20003;BME280;10162;41.600;23.806;2023-02-19T15:12:54;95065.38;;;18.13;31.96
20003;BME280;10162;41.600;23.806;2023-02-19T15:15:25;95074.03;;;17.59;31.20
20003;BME280;10162;41.600;23.806;2023-02-19T15:17:53;95070.47;;;17.65;31.15
20003;BME280;10162;41.600;23.806;2023-02-19T15:20:22;95079.63;;;17.46;31.30
20003;BME280;10162;41.600;23.806;2023-02-19T15:22:51;95071.13;;;17.15;31.82
20003;BME280;10162;41.600;23.806;2023-02-19T15:25:19;95073.69;;;17.10;30.89
20003;BME280;10162;41.600;23.806;2023-02-19T15:27:46;95065.38;;;16.62;32.07
20003;BME280;10162;41.600;23.806;2023-02-19T15:30:27;95082.66;;;16.58;31.99
20003;BME280;10162;41.600;23.806;2023-02-19T15:35:54;95084.88;;;16.26;32.73
20003;BME280;10162;41.600;23.806;2023-02-19T15:38:22;95081.69;;;16.00;33.14
20003;BME280;10162;41.600;23.806;2023-02-19T15:40:48;95094.28;;;15.75;33.94
20003;BME280;10162;41.600;23.806;2023-02-19T15:43:36;95094.16;;;15.40;34.67
20003;BME280;10162;41.600;23.806;2023-02-19T15:46:14;95070.34;;;15.05;35.18
20003;BME280;10162;41.600;23.806;2023-02-19T15:49:13;95095.88;;;14.75;36.37
20003;BME280;10162;41.600;23.806;2023-02-19T15:51:46;95089.41;;;14.71;36.11
20003;BME280;10162;41.600;23.806;2023-02-19T15:55:01;95106.06;;;15.01;34.96
20003;BME280;10162;41.600;23.806;2023-02-19T15:57:34;95097.09;;;14.54;36.11
20003;BME280;10162;41.600;23.806;2023-02-19T16:00:10;95095.41;;;14.41;37.03
20003;BME280;10162;41.600;23.806;2023-02-19T16:02:45;95114.47;;;14.37;37.12
20003;BME280;10162;41.600;23.806;2023-02-19T16:05:23;95107.13;;;15.42;33.96
20003;BME280;10162;41.600;23.806;2023-02-19T16:08:17;95090.22;;;14.71;35.42
20003;BME280;10162;41.600;23.806;2023-02-19T16:10:56;95112.50;;;14.87;35.40
20003;BME280;10162;41.600;23.806;2023-02-19T16:17:18;95099.75;;;15.02;34.17
20003;BME280;10162;41.600;23.806;2023-02-19T16:26:13;95096.75;;;14.51;35.63
20003;BME280;10162;41.600;23.806;2023-02-19T16:28:40;95127.25;;;14.08;37.58
20003;BME280;10162;41.600;23.806;2023-02-19T16:31:11;95122.59;;;13.86;38.09
20003;BME280;10162;41.600;23.806;2023-02-19T16:33:53;95127.72;;;13.18;40.17
20003;BME280;10162;41.600;23.806;2023-02-19T16:48:08;95106.69;;;11.37;44.09
20003;BME280;10162;41.600;23.806;2023-02-19T16:50:35;95096.41;;;11.42;43.79
20003;BME280;10162;41.600;23.806;2023-02-19T16:53:02;95105.84;;;11.30;44.15
20003;BME280;10162;41.600;23.806;2023-02-19T16:55:29;95131.53;;;10.87;45.45
20003;BME280;10162;41.600;23.806;2023-02-19T16:58:03;95107.09;;;12.13;41.78
20003;BME280;10162;41.600;23.806;2023-02-19T17:00:30;95129.44;;;12.35;41.75
20003;BME280;10162;41.600;23.806;2023-02-19T17:06:50;95137.03;;;11.05;45.25
20003;BME280;10162;41.600;23.806;2023-02-19T17:09:16;95104.84;;;11.24;44.56
20003;BME280;10162;41.600;23.806;2023-02-19T17:11:41;95120.53;;;10.57;46.43
20003;BME280;10162;41.600;23.806;2023-02-19T17:14:43;95138.56;;;10.86;46.45
20003;BME280;10162;41.600;23.806;2023-02-19T17:17:09;95107.03;;;10.47;46.72
20003;BME280;10162;41.600;23.806;2023-02-19T17:19:35;95109.59;;;10.40;46.55
20003;BME280;10162;41.600;23.806;2023-02-19T17:22:05;95105.22;;;10.54;46.48
20003;BME280;10162;41.600;23.806;2023-02-19T17:24:31;95121.38;;;10.23;47.41
20003;BME280;10162;41.600;23.806;2023-02-19T17:26:56;95133.72;;;10.35;47.91
20003;BME280;10162;41.600;23.806;2023-02-19T17:29:22;95143.81;;;10.86;46.75
20003;BME280;10162;41.600;23.806;2023-02-19T17:31:49;95149.66;;;10.54;47.61
20003;BME280;10162;41.600;23.806;2023-02-19T17:34:24;95138.44;;;10.19;48.41
20003;BME280;10162;41.600;23.806;2023-02-19T17:40:30;95138.50;;;10.04;49.31
20003;BME280;10162;41.600;23.806;2023-02-19T17:46:05;95143.94;;;10.30;48.34
20003;BME280;10162;41.600;23.806;2023-02-19T17:48:30;95138.44;;;10.19;48.91
20003;BME280;10162;41.600;23.806;2023-02-19T17:50:56;95154.53;;;10.22;49.65
20003;BME280;10162;41.600;23.806;2023-02-19T17:56:27;95136.59;;;10.54;48.34
20003;BME280;10162;41.600;23.806;2023-02-19T17:58:54;95143.72;;;10.73;47.96
20003;BME280;10162;41.600;23.806;2023-02-19T18:01:21;95138.97;;;10.90;47.07
20003;BME280;10162;41.600;23.806;2023-02-19T18:04:04;95160.16;;;11.08;47.35
20003;BME280;10162;41.600;23.806;2023-02-19T18:06:31;95141.19;;;10.86;47.83
20003;BME280;10162;41.600;23.806;2023-02-19T18:08:57;95156.75;;;11.14;47.29
20003;BME280;10162;41.600;23.806;2023-02-19T18:11:23;95154.41;;;10.78;48.34
20003;BME280;10162;41.600;23.806;2023-02-19T18:16:56;95148.84;;;10.94;47.59
20003;BME280;10162;41.600;23.806;2023-02-19T18:19:22;95163.50;;;10.89;47.91
20003;BME280;10162;41.600;23.806;2023-02-19T18:21:49;95155.16;;;10.24;49.69
20003;BME280;10162;41.600;23.806;2023-02-19T18:24:15;95183.91;;;10.24;50.29
20003;BME280;10162;41.600;23.806;2023-02-19T18:26:40;95182.66;;;10.20;50.24
20003;BME280;10162;41.600;23.806;2023-02-19T18:29:06;95180.25;;;10.53;49.25
20003;BME280;10162;41.600;23.806;2023-02-19T18:31:33;95180.31;;;10.32;50.13
20003;BME280;10162;41.600;23.806;2023-02-19T18:37:55;95180.50;;;9.18;53.64
20003;BME280;10162;41.600;23.806;2023-02-19T18:40:24;95194.34;;;9.54;52.76
20003;BME280;10162;41.600;23.806;2023-02-19T18:46:19;95193.63;;;8.29;57.03
20003;BME280;10162;41.600;23.806;2023-02-19T18:48:45;95183.13;;;8.38;56.91
20003;BME280;10162;41.600;23.806;2023-02-19T18:51:11;95181.03;;;8.18;57.49
20003;BME280;10162;41.600;23.806;2023-02-19T18:53:43;95185.94;;;7.99;58.52
20003;BME280;10162;41.600;23.806;2023-02-19T18:56:09;95165.03;;;7.32;60.60
20003;BME280;10162;41.600;23.806;2023-02-19T18:58:35;95203.66;;;7.80;60.24
20003;BME280;10162;41.600;23.806;2023-02-19T19:01:01;95184.97;;;7.62;59.99
20003;BME280;10162;41.600;23.806;2023-02-19T19:03:46;95211.28;;;7.67;60.39
20003;BME280;10162;41.600;23.806;2023-02-19T19:06:14;95186.50;;;7.34;61.21
20003;BME280;10162;41.600;23.806;2023-02-19T19:08:40;95210.19;;;7.08;62.20
20003;BME280;10162;41.600;23.806;2023-02-19T19:11:08;95209.59;;;7.29;62.33
20003;BME280;10162;41.600;23.806;2023-02-19T19:16:47;95198.28;;;7.44;61.74
20003;BME280;10162;41.600;23.806;2023-02-19T19:19:13;95191.44;;;7.43;61.79
20003;BME280;10162;41.600;23.806;2023-02-19T19:25:28;95208.03;;;8.69;57.53
20003;BME280;10162;41.600;23.806;2023-02-19T19:27:54;95201.03;;;8.70;56.69
20003;BME280;10162;41.600;23.806;2023-02-19T19:30:21;95216.19;;;8.81;56.22
20003;BME280;10162;41.600;23.806;2023-02-19T19:36:42;95214.97;;;9.13;54.42
20003;BME280;10162;41.600;23.806;2023-02-19T19:39:08;95206.25;;;9.21;53.70
20003;BME280;10162;41.600;23.806;2023-02-19T19:41:34;95199.56;;;9.54;52.66
20003;BME280;10162;41.600;23.806;2023-02-19T19:47:10;95225.72;;;9.61;52.63
20003;BME280;10162;41.600;23.806;2023-02-19T19:49:39;95239.91;;;9.37;53.64
20003;BME280;10162;41.600;23.806;2023-02-19T19:52:08;95219.31;;;9.42;52.57
20003;BME280;10162;41.600;23.806;2023-02-19T19:54:34;95217.41;;;9.15;53.48
20003;BME280;10162;41.600;23.806;2023-02-19T19:57:01;95219.34;;;9.27;53.22
20003;BME280;10162;41.600;23.806;2023-02-19T19:59:27;95235.41;;;8.95;53.89
20003;BME280;10162;41.600;23.806;2023-02-19T20:05:06;95244.06;;;9.31;53.17
20003;BME280;10162;41.600;23.806;2023-02-19T20:07:32;95265.69;;;9.25;53.41
20003;BME280;10162;41.600;23.806;2023-02-19T20:09:58;95225.22;;;9.00;53.79
20003;BME280;10162;41.600;23.806;2023-02-19T20:12:39;95254.16;;;9.20;53.54
20003;BME280;10162;41.600;23.806;2023-02-19T20:15:06;95248.06;;;9.27;53.30
20003;BME280;10162;41.600;23.806;2023-02-19T20:17:33;95241.66;;;9.30;53.07
20003;BME280;10162;41.600;23.806;2023-02-19T20:20:00;95247.34;;;9.19;53.42
20003;BME280;10162;41.600;23.806;2023-02-19T20:22:27;95261.91;;;9.28;53.31
20003;BME280;10162;41.600;23.806;2023-02-19T20:24:54;95237.88;;;9.18;53.17
20003;BME280;10162;41.600;23.806;2023-02-19T20:27:20;95274.50;;;9.24;53.07
20003;BME280;10162;41.600;23.806;2023-02-19T20:30:11;95268.53;;;9.30;53.08
20003;BME280;10162;41.600;23.806;2023-02-19T20:33:01;95265.75;;;9.32;53.13
20003;BME280;10162;41.600;23.806;2023-02-19T20:35:30;95247.97;;;9.06;53.70
20003;BME280;10162;41.600;23.806;2023-02-19T20:37:56;95245.84;;;8.95;54.30
20003;BME280;10162;41.600;23.806;2023-02-19T20:44:17;95233.75;;;8.20;56.37
20003;BME280;10162;41.600;23.806;2023-02-19T20:46:47;95236.69;;;8.55;55.31
20003;BME280;10162;41.600;23.806;2023-02-19T20:49:15;95232.19;;;8.49;55.18
20003;BME280;10162;41.600;23.806;2023-02-19T20:51:46;95277.84;;;8.74;55.64
20003;BME280;10162;41.600;23.806;2023-02-19T20:54:55;95282.81;;;8.69;55.76
20003;BME280;10162;41.600;23.806;2023-02-19T20:57:24;95252.69;;;8.66;55.19
20003;BME280;10162;41.600;23.806;2023-02-19T20:59:50;95288.69;;;8.34;56.83
20003;BME280;10162;41.600;23.806;2023-02-19T21:06:26;95271.81;;;7.84;58.99
20003;BME280;10162;41.600;23.806;2023-02-19T21:08:52;95268.59;;;8.19;57.71
20003;BME280;10162;41.600;23.806;2023-02-19T21:11:18;95275.91;;;7.78;59.91
20003;BME280;10162;41.600;23.806;2023-02-19T21:13:52;95301.19;;;7.70;61.06
20003;BME280;10162;41.600;23.806;2023-02-19T21:16:25;95292.53;;;7.46;62.40
20003;BME280;10162;41.600;23.806;2023-02-19T21:18:51;95282.69;;;7.03;62.64
20003;BME280;10162;41.600;23.806;2023-02-19T21:21:20;95261.53;;;6.75;64.53
20003;BME280;10162;41.600;23.806;2023-02-19T21:24:15;95260.31;;;6.94;64.28
20003;BME280;10162;41.600;23.806;2023-02-19T21:29:52;95274.13;;;6.23;67.17
20003;BME280;10162;41.600;23.806;2023-02-19T21:35:40;95293.28;;;6.22;68.15
20003;BME280;10162;41.600;23.806;2023-02-19T21:38:06;95313.06;;;6.23;68.08
20003;BME280;10162;41.600;23.806;2023-02-19T21:47:11;95295.09;;;5.23;71.82
20003;BME280;10162;41.600;23.806;2023-02-19T22:27:38;95313.81;;;4.41;78.98
20003;BME280;10162;41.600;23.806;2023-02-19T22:49:37;95304.59;;;3.77;82.01
20003;BME280;10162;41.600;23.806;2023-02-19T22:52:08;95343.53;;;3.93;83.06
20003;BME280;10162;41.600;23.806;2023-02-19T23:06:33;95318.47;;;3.94;82.77
20003;BME280;10162;41.600;23.806;2023-02-19T23:20:44;95325.25;;;4.12;83.47
